sensor_id;sensor_type;location;lat;lon;timestamp;P1;durP1;ratioP1;P2;durP2;ratioP2
64515;SDS011;50891;37.380;-122.076;2022-08-19T00:01:37;7.82;;;4.10;;
64515;SDS011;50891;37.380;-122.076;2022-08-19T00:04:06;12.97;;;4.13;;
64515;SDS011;50891;37.380;-122.076;2022-08-19T00:06:35;7.40;;;4.25;;
64515;SDS011;50891;37.380;-122.076;2022-08-19T00:09:03;10.15;;;4.50;;
64515;SDS011;50891;37.380;-122.076;2022-08-19T00:11:32;7.32;;;4.15;;
64515;SDS011;50891;37.380;-122.076;2022-08-19T00:13:59;8.70;;;4.40;;
64515;SDS011;50891;37.380;-122.076;2022-08-19T00:16:26;8.52;;;4.20;;
64515;SDS011;50891;37.380;-122.076;2022-08-19T00:18:53;7.00;;;4.18;;
64515;SDS011;50891;37.380;-122.076;2022-08-19T00:21:20;8.20;;;4.00;;
64515;SDS011;50891;37.380;-122.076;2022-08-19T00:23:47;7.35;;;4.10;;
64515;SDS011;50891;37.380;-122.076;2022-08-19T00:26:14;6.47;;;3.80;;
64515;SDS011;50891;37.380;-122.076;2022-08-19T00:28:40;6.68;;;4.10;;
64515;SDS011;50891;37.380;-122.076;2022-08-19T00:31:07;6.85;;;4.00;;
64515;SDS011;50891;37.380;-122.076;2022-08-19T00:33:34;8.60;;;4.20;;
64515;SDS011;50891;37.380;-122.076;2022-08-19T00:36:04;7.00;;;3.80;;
64515;SDS011;50891;37.380;-122.076;2022-08-19T00:38:35;7.68;;;3.78;;
64515;SDS011;50891;37.380;-122.076;2022-08-19T00:41:03;8.40;;;3.88;;
64515;SDS011;50891;37.380;-122.076;2022-08-19T00:43:32;7.78;;;3.70;;
64515;SDS011;50891;37.380;-122.076;2022-08-19T00:45:59;7.38;;;3.70;;
64515;SDS011;50891;37.380;-122.076;2022-08-19T00:48:28;7.43;;;3.95;;
64515;SDS011;50891;37.380;-122.076;2022-08-19T00:50:54;8.00;;;3.92;;
64515;SDS011;50891;37.380;-122.076;2022-08-19T00:53:22;5.65;;;3.78;;
64515;SDS011;50891;37.380;-122.076;2022-08-19T00:55:50;6.03;;;3.70;;
64515;SDS011;50891;37.380;-122.076;2022-08-19T00:58:19;6.55;;;3.60;;
64515;SDS011;50891;37.380;-122.076;2022-08-19T01:00:47;6.10;;;3.47;;
64515;SDS011;50891;37.380;-122.076;2022-08-19T01:03:15;6.00;;;3.42;;
64515;SDS011;50891;37.380;-122.076;2022-08-19T01:05:43;5.75;;;3.47;;
64515;SDS011;50891;37.380;-122.076;2022-08-19T01:08:11;8.70;;;3.67;;
64515;SDS011;50891;37.380;-122.076;2022-08-19T01:10:41;6.65;;;3.60;;
64515;SDS011;50891;37.380;-122.076;2022-08-19T01:13:29;7.37;;;3.53;;
64515;SDS011;50891;37.380;-122.076;2022-08-19T01:16:00;5.65;;;3.50;;
64515;SDS011;50891;37.380;-122.076;2022-08-19T01:18:32;8.40;;;3.80;;
64515;SDS011;50891;37.380;-122.076;2022-08-19T01:21:05;5.95;;;3.70;;
64515;SDS011;50891;37.380;-122.076;2022-08-19T01:23:36;5.93;;;3.50;;
64515;SDS011;50891;37.380;-122.076;2022-08-19T01:26:09;5.95;;;3.50;;
64515;SDS011;50891;37.380;-122.076;2022-08-19T01:28:47;7.32;;;3.47;;
64515;SDS011;50891;37.380;-122.076;2022-08-19T01:31:17;7.22;;;3.60;;
64515;SDS011;50891;37.380;-122.076;2022-08-19T01:33:49;5.60;;;3.53;;
64515;SDS011;50891;37.380;-122.076;2022-08-19T01:36:24;6.80;;;3.55;;
64515;SDS011;50891;37.380;-122.076;2022-08-19T01:38:54;5.53;;;3.30;;
64515;SDS011;50891;37.380;-122.076;2022-08-19T01:41:21;7.20;;;3.55;;
64515;SDS011;50891;37.380;-122.076;2022-08-19T01:43:48;7.72;;;3.85;;
64515;SDS011;50891;37.380;-122.076;2022-08-19T01:46:16;11.02;;;6.45;;
64515;SDS011;50891;37.380;-122.076;2022-08-19T01:48:43;10.10;;;5.65;;
64515;SDS011;50891;37.380;-122.076;2022-08-19T01:51:10;7.18;;;4.72;;
64515;SDS011;50891;37.380;-122.076;2022-08-19T01:53:38;16.25;;;11.70;;
64515;SDS011;50891;37.380;-122.076;2022-08-19T01:56:05;18.35;;;11.80;;
64515;SDS011;50891;37.380;-122.076;2022-08-19T01:58:36;12.27;;;7.93;;
64515;SDS011;50891;37.380;-122.076;2022-08-19T02:01:07;9.23;;;6.07;;
64515;SDS011;50891;37.380;-122.076;2022-08-19T02:03:33;8.27;;;5.00;;
64515;SDS011;50891;37.380;-122.076;2022-08-19T02:06:00;8.38;;;4.85;;
64515;SDS011;50891;37.380;-122.076;2022-08-19T02:08:31;7.15;;;4.47;;
64515;SDS011;50891;37.380;-122.076;2022-08-19T02:11:00;6.35;;;4.10;;
64515;SDS011;50891;37.380;-122.076;2022-08-19T02:13:26;6.47;;;4.13;;
64515;SDS011;50891;37.380;-122.076;2022-08-19T02:15:53;5.97;;;3.95;;
64515;SDS011;50891;37.380;-122.076;2022-08-19T02:18:19;5.60;;;3.92;;
64515;SDS011;50891;37.380;-122.076;2022-08-19T02:20:45;6.43;;;3.85;;
64515;SDS011;50891;37.380;-122.076;2022-08-19T02:23:15;6.07;;;3.97;;
64515;SDS011;50891;37.380;-122.076;2022-08-19T02:25:43;6.93;;;3.70;;
64515;SDS011;50891;37.380;-122.076;2022-08-19T02:28:10;6.80;;;3.80;;
64515;SDS011;50891;37.380;-122.076;2022-08-19T02:30:37;7.43;;;3.80;;
64515;SDS011;50891;37.380;-122.076;2022-08-19T02:33:06;6.07;;;3.90;;
64515;SDS011;50891;37.380;-122.076;2022-08-19T02:35:32;6.57;;;3.90;;
64515;SDS011;50891;37.380;-122.076;2022-08-19T02:37:58;6.65;;;4.22;;
64515;SDS011;50891;37.380;-122.076;2022-08-19T02:40:50;6.53;;;4.10;;
64515;SDS011;50891;37.380;-122.076;2022-08-19T02:43:17;6.53;;;4.00;;
64515;SDS011;50891;37.380;-122.076;2022-08-19T02:45:45;6.88;;;4.10;;
64515;SDS011;50891;37.380;-122.076;2022-08-19T02:48:14;6.45;;;4.18;;
64515;SDS011;50891;37.380;-122.076;2022-08-19T02:50:42;7.90;;;4.10;;
64515;SDS011;50891;37.380;-122.076;2022-08-19T02:53:09;6.57;;;3.95;;
64515;SDS011;50891;37.380;-122.076;2022-08-19T02:55:36;7.88;;;4.28;;
64515;SDS011;50891;37.380;-122.076;2022-08-19T02:58:09;6.88;;;4.00;;
64515;SDS011;50891;37.380;-122.076;2022-08-19T03:00:35;6.45;;;4.00;;
64515;SDS011;50891;37.380;-122.076;2022-08-19T03:03:07;7.13;;;4.10;;
64515;SDS011;50891;37.380;-122.076;2022-08-19T03:05:33;6.18;;;4.28;;
64515;SDS011;50891;37.380;-122.076;2022-08-19T03:07:59;6.18;;;4.00;;
64515;SDS011;50891;37.380;-122.076;2022-08-19T03:10:26;5.75;;;4.05;;
64515;SDS011;50891;37.380;-122.076;2022-08-19T03:12:53;6.75;;;4.00;;
64515;SDS011;50891;37.380;-122.076;2022-08-19T03:15:19;5.85;;;4.15;;
64515;SDS011;50891;37.380;-122.076;2022-08-19T03:17:45;7.10;;;4.20;;
64515;SDS011;50891;37.380;-122.076;2022-08-19T03:20:11;6.17;;;4.17;;
64515;SDS011;50891;37.380;-122.076;2022-08-19T03:22:38;7.22;;;4.43;;
64515;SDS011;50891;37.380;-122.076;2022-08-19T03:25:04;5.63;;;4.00;;
64515;SDS011;50891;37.380;-122.076;2022-08-19T03:27:31;6.95;;;4.20;;
64515;SDS011;50891;37.380;-122.076;2022-08-19T03:29:57;6.60;;;4.20;;
64515;SDS011;50891;37.380;-122.076;2022-08-19T03:32:24;6.43;;;4.30;;
64515;SDS011;50891;37.380;-122.076;2022-08-19T03:34:50;6.85;;;4.43;;
64515;SDS011;50891;37.380;-122.076;2022-08-19T03:37:17;6.43;;;4.17;;
64515;SDS011;50891;37.380;-122.076;2022-08-19T03:39:44;6.88;;;4.00;;
64515;SDS011;50891;37.380;-122.076;2022-08-19T03:42:10;6.15;;;4.10;;
64515;SDS011;50891;37.380;-122.076;2022-08-19T03:44:37;7.35;;;4.47;;
64515;SDS011;50891;37.380;-122.076;2022-08-19T03:47:04;6.70;;;4.18;;
64515;SDS011;50891;37.380;-122.076;2022-08-19T03:49:31;6.63;;;3.90;;
64515;SDS011;50891;37.380;-122.076;2022-08-19T03:52:00;6.05;;;4.03;;
64515;SDS011;50891;37.380;-122.076;2022-08-19T03:54:27;6.20;;;4.00;;
64515;SDS011;50891;37.380;-122.076;2022-08-19T03:56:54;6.28;;;4.05;;
64515;SDS011;50891;37.380;-122.076;2022-08-19T03:59:26;6.88;;;4.00;;
64515;SDS011;50891;37.380;-122.076;2022-08-19T04:01:55;6.63;;;4.18;;
64515;SDS011;50891;37.380;-122.076;2022-08-19T04:04:23;5.75;;;3.80;;
64515;SDS011;50891;37.380;-122.076;2022-08-19T04:06:50;5.93;;;3.90;;
64515;SDS011;50891;37.380;-122.076;2022-08-19T04:09:17;7.50;;;3.75;;
64515;SDS011;50891;37.380;-122.076;2022-08-19T04:11:46;7.47;;;3.95;;
64515;SDS011;50891;37.380;-122.076;2022-08-19T04:14:20;7.18;;;3.90;;
64515;SDS011;50891;37.380;-122.076;2022-08-19T04:16:55;5.93;;;3.80;;
64515;SDS011;50891;37.380;-122.076;2022-08-19T04:19:21;5.78;;;3.80;;
64515;SDS011;50891;37.380;-122.076;2022-08-19T04:21:49;6.05;;;3.90;;
64515;SDS011;50891;37.380;-122.076;2022-08-19T04:24:17;5.70;;;3.75;;
64515;SDS011;50891;37.380;-122.076;2022-08-19T04:26:45;6.32;;;3.78;;
64515;SDS011;50891;37.380;-122.076;2022-08-19T04:29:16;7.20;;;3.90;;
64515;SDS011;50891;37.380;-122.076;2022-08-19T04:31:47;6.38;;;3.80;;
64515;SDS011;50891;37.380;-122.076;2022-08-19T04:34:15;5.72;;;3.78;;
64515;SDS011;50891;37.380;-122.076;2022-08-19T04:36:43;5.82;;;3.90;;
64515;SDS011;50891;37.380;-122.076;2022-08-19T04:39:15;7.35;;;3.80;;
64515;SDS011;50891;37.380;-122.076;2022-08-19T04:41:43;6.13;;;3.70;;
64515;SDS011;50891;37.380;-122.076;2022-08-19T04:44:29;5.95;;;3.83;;
64515;SDS011;50891;37.380;-122.076;2022-08-19T04:47:00;5.43;;;3.60;;
64515;SDS011;50891;37.380;-122.076;2022-08-19T04:49:30;6.93;;;4.07;;
64515;SDS011;50891;37.380;-122.076;2022-08-19T04:51:57;5.53;;;3.80;;
64515;SDS011;50891;37.380;-122.076;2022-08-19T04:54:23;5.80;;;3.80;;
64515;SDS011;50891;37.380;-122.076;2022-08-19T04:56:51;6.03;;;3.78;;
64515;SDS011;50891;37.380;-122.076;2022-08-19T04:59:18;5.63;;;3.65;;
64515;SDS011;50891;37.380;-122.076;2022-08-19T05:01:46;5.22;;;3.90;;
64515;SDS011;50891;37.380;-122.076;2022-08-19T05:04:15;5.68;;;3.53;;
64515;SDS011;50891;37.380;-122.076;2022-08-19T05:06:46;5.43;;;3.60;;
64515;SDS011;50891;37.380;-122.076;2022-08-19T05:09:14;6.65;;;3.70;;
64515;SDS011;50891;37.380;-122.076;2022-08-19T05:11:41;5.10;;;3.70;;
64515;SDS011;50891;37.380;-122.076;2022-08-19T05:14:08;5.80;;;3.75;;
64515;SDS011;50891;37.380;-122.076;2022-08-19T05:16:37;4.85;;;3.40;;
64515;SDS011;50891;37.380;-122.076;2022-08-19T05:19:04;5.40;;;3.60;;
64515;SDS011;50891;37.380;-122.076;2022-08-19T05:21:49;5.38;;;3.33;;
64515;SDS011;50891;37.380;-122.076;2022-08-19T05:24:33;5.53;;;3.50;;
64515;SDS011;50891;37.380;-122.076;2022-08-19T05:27:00;5.60;;;3.70;;
64515;SDS011;50891;37.380;-122.076;2022-08-19T05:29:28;5.80;;;3.40;;
64515;SDS011;50891;37.380;-122.076;2022-08-19T05:31:56;4.77;;;3.30;;
64515;SDS011;50891;37.380;-122.076;2022-08-19T05:34:24;4.63;;;3.10;;
64515;SDS011;50891;37.380;-122.076;2022-08-19T05:36:52;6.32;;;3.40;;
64515;SDS011;50891;37.380;-122.076;2022-08-19T05:39:23;6.00;;;3.40;;
64515;SDS011;50891;37.380;-122.076;2022-08-19T05:41:57;4.60;;;3.30;;
64515;SDS011;50891;37.380;-122.076;2022-08-19T05:44:26;4.78;;;3.20;;
64515;SDS011;50891;37.380;-122.076;2022-08-19T05:47:00;5.07;;;3.10;;
64515;SDS011;50891;37.380;-122.076;2022-08-19T05:49:28;5.05;;;3.20;;
64515;SDS011;50891;37.380;-122.076;2022-08-19T05:51:55;4.72;;;3.08;;
64515;SDS011;50891;37.380;-122.076;2022-08-19T05:54:22;4.80;;;3.28;;
64515;SDS011;50891;37.380;-122.076;2022-08-19T05:56:49;5.28;;;3.25;;
64515;SDS011;50891;37.380;-122.076;2022-08-19T05:59:17;4.82;;;3.10;;
64515;SDS011;50891;37.380;-122.076;2022-08-19T06:01:47;4.95;;;3.03;;
64515;SDS011;50891;37.380;-122.076;2022-08-19T06:04:16;5.57;;;3.00;;
64515;SDS011;50891;37.380;-122.076;2022-08-19T06:06:46;3.55;;;2.78;;
64515;SDS011;50891;37.380;-122.076;2022-08-19T06:09:15;4.50;;;2.80;;
64515;SDS011;50891;37.380;-122.076;2022-08-19T06:14:12;4.57;;;2.80;;
64515;SDS011;50891;37.380;-122.076;2022-08-19T06:16:41;5.00;;;2.80;;
64515;SDS011;50891;37.380;-122.076;2022-08-19T06:19:12;5.13;;;2.78;;
64515;SDS011;50891;37.380;-122.076;2022-08-19T06:21:41;4.57;;;2.90;;
64515;SDS011;50891;37.380;-122.076;2022-08-19T06:24:10;4.90;;;2.90;;
64515;SDS011;50891;37.380;-122.076;2022-08-19T06:26:40;4.38;;;2.85;;
64515;SDS011;50891;37.380;-122.076;2022-08-19T06:29:09;4.18;;;2.72;;
64515;SDS011;50891;37.380;-122.076;2022-08-19T06:31:36;4.55;;;2.83;;
64515;SDS011;50891;37.380;-122.076;2022-08-19T06:34:05;4.97;;;2.63;;
64515;SDS011;50891;37.380;-122.076;2022-08-19T06:36:36;5.32;;;2.70;;
64515;SDS011;50891;37.380;-122.076;2022-08-19T06:39:10;4.25;;;2.70;;
64515;SDS011;50891;37.380;-122.076;2022-08-19T06:41:39;4.35;;;2.65;;
64515;SDS011;50891;37.380;-122.076;2022-08-19T06:44:07;4.07;;;2.70;;
64515;SDS011;50891;37.380;-122.076;2022-08-19T06:46:35;4.43;;;2.70;;
64515;SDS011;50891;37.380;-122.076;2022-08-19T06:49:02;4.28;;;2.60;;
64515;SDS011;50891;37.380;-122.076;2022-08-19T06:51:28;3.45;;;2.55;;
64515;SDS011;50891;37.380;-122.076;2022-08-19T06:53:56;4.05;;;2.55;;
64515;SDS011;50891;37.380;-122.076;2022-08-19T06:56:25;3.30;;;2.60;;
64515;SDS011;50891;37.380;-122.076;2022-08-19T06:59:04;4.85;;;2.67;;
64515;SDS011;50891;37.380;-122.076;2022-08-19T07:01:46;3.95;;;2.55;;
64515;SDS011;50891;37.380;-122.076;2022-08-19T07:04:17;6.40;;;2.80;;
64515;SDS011;50891;37.380;-122.076;2022-08-19T07:06:46;4.90;;;2.70;;
64515;SDS011;50891;37.380;-122.076;2022-08-19T07:09:13;5.25;;;3.00;;
64515;SDS011;50891;37.380;-122.076;2022-08-19T07:11:48;6.00;;;2.90;;
64515;SDS011;50891;37.380;-122.076;2022-08-19T07:14:18;6.32;;;3.40;;
64515;SDS011;50891;37.380;-122.076;2022-08-19T07:16:49;5.10;;;3.30;;
64515;SDS011;50891;37.380;-122.076;2022-08-19T07:19:17;7.15;;;3.58;;
64515;SDS011;50891;37.380;-122.076;2022-08-19T07:21:45;10.38;;;3.63;;
64515;SDS011;50891;37.380;-122.076;2022-08-19T07:24:18;7.90;;;3.60;;
64515;SDS011;50891;37.380;-122.076;2022-08-19T07:26:46;6.10;;;3.60;;
64515;SDS011;50891;37.380;-122.076;2022-08-19T07:29:12;7.50;;;3.70;;
64515;SDS011;50891;37.380;-122.076;2022-08-19T07:31:39;5.55;;;3.50;;
64515;SDS011;50891;37.380;-122.076;2022-08-19T07:34:06;8.07;;;3.53;;
64515;SDS011;50891;37.380;-122.076;2022-08-19T07:36:35;6.55;;;3.50;;
64515;SDS011;50891;37.380;-122.076;2022-08-19T07:39:07;6.28;;;3.65;;
64515;SDS011;50891;37.380;-122.076;2022-08-19T07:41:36;6.78;;;3.70;;
64515;SDS011;50891;37.380;-122.076;2022-08-19T07:44:03;5.97;;;3.40;;
64515;SDS011;50891;37.380;-122.076;2022-08-19T07:46:36;4.90;;;3.30;;
64515;SDS011;50891;37.380;-122.076;2022-08-19T07:49:05;5.20;;;3.30;;
64515;SDS011;50891;37.380;-122.076;2022-08-19T07:51:33;6.63;;;3.55;;
64515;SDS011;50891;37.380;-122.076;2022-08-19T07:54:00;5.03;;;3.35;;
64515;SDS011;50891;37.380;-122.076;2022-08-19T07:56:26;5.87;;;3.30;;
64515;SDS011;50891;37.380;-122.076;2022-08-19T07:58:52;5.43;;;3.30;;
64515;SDS011;50891;37.380;-122.076;2022-08-19T08:01:20;5.68;;;3.53;;
64515;SDS011;50891;37.380;-122.076;2022-08-19T08:03:51;5.00;;;3.40;;
64515;SDS011;50891;37.380;-122.076;2022-08-19T08:06:36;4.55;;;3.05;;
64515;SDS011;50891;37.380;-122.076;2022-08-19T08:09:35;6.32;;;3.30;;
64515;SDS011;50891;37.380;-122.076;2022-08-19T08:12:14;6.32;;;3.50;;
64515;SDS011;50891;37.380;-122.076;2022-08-19T08:14:50;4.70;;;3.40;;
64515;SDS011;50891;37.380;-122.076;2022-08-19T08:17:20;4.28;;;3.15;;
64515;SDS011;50891;37.380;-122.076;2022-08-19T08:19:49;5.35;;;3.25;;
64515;SDS011;50891;37.380;-122.076;2022-08-19T08:22:18;4.53;;;3.20;;
64515;SDS011;50891;37.380;-122.076;2022-08-19T08:25:06;5.30;;;3.17;;
64515;SDS011;50891;37.380;-122.076;2022-08-19T08:27:38;5.22;;;3.22;;
64515;SDS011;50891;37.380;-122.076;2022-08-19T08:30:07;4.60;;;3.00;;
64515;SDS011;50891;37.380;-122.076;2022-08-19T08:32:38;4.70;;;3.20;;
64515;SDS011;50891;37.380;-122.076;2022-08-19T08:35:05;4.35;;;2.97;;
64515;SDS011;50891;37.380;-122.076;2022-08-19T08:37:33;4.13;;;3.00;;
64515;SDS011;50891;37.380;-122.076;2022-08-19T08:40:02;4.95;;;3.13;;
64515;SDS011;50891;37.380;-122.076;2022-08-19T08:42:36;4.32;;;3.00;;
64515;SDS011;50891;37.380;-122.076;2022-08-19T08:45:12;4.57;;;2.90;;
64515;SDS011;50891;37.380;-122.076;2022-08-19T08:47:41;4.53;;;3.10;;
64515;SDS011;50891;37.380;-122.076;2022-08-19T08:50:18;4.57;;;3.10;;
64515;SDS011;50891;37.380;-122.076;2022-08-19T08:52:49;5.50;;;3.15;;
64515;SDS011;50891;37.380;-122.076;2022-08-19T08:55:24;4.00;;;2.90;;
64515;SDS011;50891;37.380;-122.076;2022-08-19T09:00:23;4.32;;;2.90;;
64515;SDS011;50891;37.380;-122.076;2022-08-19T09:02:52;4.43;;;3.05;;
64515;SDS011;50891;37.380;-122.076;2022-08-19T09:05:20;4.00;;;3.00;;
64515;SDS011;50891;37.380;-122.076;2022-08-19T09:08:02;4.28;;;3.00;;
64515;SDS011;50891;37.380;-122.076;2022-08-19T09:10:37;4.50;;;3.03;;
64515;SDS011;50891;37.380;-122.076;2022-08-19T09:16:03;4.57;;;2.80;;
64515;SDS011;50891;37.380;-122.076;2022-08-19T09:18:45;4.07;;;2.97;;
64515;SDS011;50891;37.380;-122.076;2022-08-19T09:21:20;4.32;;;2.92;;
64515;SDS011;50891;37.380;-122.076;2022-08-19T09:23:48;4.33;;;3.00;;
64515;SDS011;50891;37.380;-122.076;2022-08-19T09:26:16;4.15;;;2.80;;
64515;SDS011;50891;37.380;-122.076;2022-08-19T09:28:45;4.88;;;2.95;;
64515;SDS011;50891;37.380;-122.076;2022-08-19T09:31:17;4.88;;;2.90;;
64515;SDS011;50891;37.380;-122.076;2022-08-19T09:33:46;4.00;;;2.95;;
64515;SDS011;50891;37.380;-122.076;2022-08-19T09:36:14;5.30;;;3.20;;
64515;SDS011;50891;37.380;-122.076;2022-08-19T09:38:43;3.75;;;2.90;;
64515;SDS011;50891;37.380;-122.076;2022-08-19T09:41:11;4.15;;;2.85;;
64515;SDS011;50891;37.380;-122.076;2022-08-19T09:43:40;3.95;;;2.90;;
64515;SDS011;50891;37.380;-122.076;2022-08-19T09:46:08;4.43;;;2.90;;
64515;SDS011;50891;37.380;-122.076;2022-08-19T09:48:38;3.55;;;2.90;;
64515;SDS011;50891;37.380;-122.076;2022-08-19T09:51:07;4.93;;;3.00;;
64515;SDS011;50891;37.380;-122.076;2022-08-19T09:53:35;4.07;;;2.90;;
64515;SDS011;50891;37.380;-122.076;2022-08-19T09:56:03;4.95;;;3.20;;
64515;SDS011;50891;37.380;-122.076;2022-08-19T09:58:31;4.55;;;3.00;;
64515;SDS011;50891;37.380;-122.076;2022-08-19T10:00:59;4.10;;;2.72;;
64515;SDS011;50891;37.380;-122.076;2022-08-19T10:03:27;4.13;;;2.95;;
64515;SDS011;50891;37.380;-122.076;2022-08-19T10:05:55;3.80;;;2.90;;
64515;SDS011;50891;37.380;-122.076;2022-08-19T10:08:24;5.22;;;3.10;;
64515;SDS011;50891;37.380;-122.076;2022-08-19T10:10:53;4.13;;;3.00;;
64515;SDS011;50891;37.380;-122.076;2022-08-19T10:13:21;3.85;;;2.90;;
64515;SDS011;50891;37.380;-122.076;2022-08-19T10:15:50;4.30;;;2.90;;
64515;SDS011;50891;37.380;-122.076;2022-08-19T10:18:19;4.25;;;3.00;;
64515;SDS011;50891;37.380;-122.076;2022-08-19T10:20:47;4.10;;;3.10;;
64515;SDS011;50891;37.380;-122.076;2022-08-19T10:23:15;4.20;;;3.05;;
64515;SDS011;50891;37.380;-122.076;2022-08-19T10:25:42;3.75;;;3.00;;
64515;SDS011;50891;37.380;-122.076;2022-08-19T10:28:09;4.43;;;3.10;;
64515;SDS011;50891;37.380;-122.076;2022-08-19T10:30:38;4.17;;;3.20;;
64515;SDS011;50891;37.380;-122.076;2022-08-19T10:33:05;4.32;;;3.00;;
64515;SDS011;50891;37.380;-122.076;2022-08-19T10:35:32;4.55;;;3.10;;
64515;SDS011;50891;37.380;-122.076;2022-08-19T10:37:58;4.23;;;3.23;;
64515;SDS011;50891;37.380;-122.076;2022-08-19T10:40:26;4.57;;;3.27;;
64515;SDS011;50891;37.380;-122.076;2022-08-19T10:42:54;4.78;;;3.20;;
64515;SDS011;50891;37.380;-122.076;2022-08-19T10:45:21;5.10;;;3.40;;
64515;SDS011;50891;37.380;-122.076;2022-08-19T10:47:50;6.43;;;3.55;;
64515;SDS011;50891;37.380;-122.076;2022-08-19T10:50:16;4.75;;;3.55;;
64515;SDS011;50891;37.380;-122.076;2022-08-19T10:53:03;5.60;;;3.50;;
64515;SDS011;50891;37.380;-122.076;2022-08-19T10:55:34;4.47;;;3.50;;
64515;SDS011;50891;37.380;-122.076;2022-08-19T10:58:19;5.75;;;3.53;;
64515;SDS011;50891;37.380;-122.076;2022-08-19T11:00:55;4.90;;;3.80;;
64515;SDS011;50891;37.380;-122.076;2022-08-19T11:03:23;5.03;;;3.70;;
64515;SDS011;50891;37.380;-122.076;2022-08-19T11:06:03;5.15;;;3.63;;
64515;SDS011;50891;37.380;-122.076;2022-08-19T11:08:32;5.07;;;3.40;;
64515;SDS011;50891;37.380;-122.076;2022-08-19T11:11:00;4.95;;;3.40;;
64515;SDS011;50891;37.380;-122.076;2022-08-19T11:13:29;4.40;;;3.28;;
64515;SDS011;50891;37.380;-122.076;2022-08-19T11:15:58;4.72;;;3.50;;
64515;SDS011;50891;37.380;-122.076;2022-08-19T11:18:40;4.20;;;3.30;;
64515;SDS011;50891;37.380;-122.076;2022-08-19T11:21:13;4.97;;;3.50;;
64515;SDS011;50891;37.380;-122.076;2022-08-19T11:23:45;4.53;;;3.40;;
64515;SDS011;50891;37.380;-122.076;2022-08-19T11:26:13;4.78;;;3.47;;
64515;SDS011;50891;37.380;-122.076;2022-08-19T11:28:41;4.40;;;3.40;;
64515;SDS011;50891;37.380;-122.076;2022-08-19T11:31:15;5.18;;;3.55;;
64515;SDS011;50891;37.380;-122.076;2022-08-19T11:33:44;4.90;;;3.60;;
64515;SDS011;50891;37.380;-122.076;2022-08-19T11:36:11;5.32;;;3.60;;
64515;SDS011;50891;37.380;-122.076;2022-08-19T11:38:38;5.22;;;3.75;;
64515;SDS011;50891;37.380;-122.076;2022-08-19T11:41:05;5.60;;;3.88;;
64515;SDS011;50891;37.380;-122.076;2022-08-19T11:43:33;4.80;;;3.67;;
64515;SDS011;50891;37.380;-122.076;2022-08-19T11:46:03;4.97;;;3.90;;
64515;SDS011;50891;37.380;-122.076;2022-08-19T11:48:32;5.18;;;3.95;;
64515;SDS011;50891;37.380;-122.076;2022-08-19T11:50:58;4.97;;;3.90;;
64515;SDS011;50891;37.380;-122.076;2022-08-19T11:53:31;5.88;;;4.00;;
64515;SDS011;50891;37.380;-122.076;2022-08-19T11:55:58;5.28;;;4.10;;
64515;SDS011;50891;37.380;-122.076;2022-08-19T11:58:24;5.90;;;3.97;;
64515;SDS011;50891;37.380;-122.076;2022-08-19T12:00:51;5.55;;;3.92;;
64515;SDS011;50891;37.380;-122.076;2022-08-19T12:03:17;5.22;;;3.83;;
64515;SDS011;50891;37.380;-122.076;2022-08-19T12:05:44;5.55;;;3.90;;
64515;SDS011;50891;37.380;-122.076;2022-08-19T12:08:11;5.88;;;3.88;;
64515;SDS011;50891;37.380;-122.076;2022-08-19T12:10:40;5.65;;;4.03;;
64515;SDS011;50891;37.380;-122.076;2022-08-19T12:13:08;5.05;;;3.70;;
64515;SDS011;50891;37.380;-122.076;2022-08-19T12:15:38;5.05;;;3.72;;
64515;SDS011;50891;37.380;-122.076;2022-08-19T12:18:08;4.95;;;3.70;;
64515;SDS011;50891;37.380;-122.076;2022-08-19T12:20:35;5.53;;;3.67;;
64515;SDS011;50891;37.380;-122.076;2022-08-19T12:23:04;5.00;;;3.60;;
64515;SDS011;50891;37.380;-122.076;2022-08-19T12:25:31;5.30;;;3.65;;
64515;SDS011;50891;37.380;-122.076;2022-08-19T12:27:58;5.22;;;3.63;;
64515;SDS011;50891;37.380;-122.076;2022-08-19T12:30:24;5.15;;;3.60;;
64515;SDS011;50891;37.380;-122.076;2022-08-19T12:32:51;5.50;;;3.63;;
64515;SDS011;50891;37.380;-122.076;2022-08-19T12:35:17;5.32;;;3.70;;
64515;SDS011;50891;37.380;-122.076;2022-08-19T12:37:45;4.67;;;3.43;;
64515;SDS011;50891;37.380;-122.076;2022-08-19T12:40:13;4.88;;;3.20;;
64515;SDS011;50891;37.380;-122.076;2022-08-19T12:42:41;5.00;;;3.72;;
64515;SDS011;50891;37.380;-122.076;2022-08-19T12:45:08;5.47;;;3.50;;
64515;SDS011;50891;37.380;-122.076;2022-08-19T12:47:35;4.70;;;3.50;;
64515;SDS011;50891;37.380;-122.076;2022-08-19T12:50:02;4.80;;;3.70;;
64515;SDS011;50891;37.380;-122.076;2022-08-19T12:52:33;5.10;;;3.58;;
64515;SDS011;50891;37.380;-122.076;2022-08-19T12:55:04;5.32;;;3.50;;
64515;SDS011;50891;37.380;-122.076;2022-08-19T12:57:32;5.20;;;3.47;;
64515;SDS011;50891;37.380;-122.076;2022-08-19T13:00:07;5.28;;;3.55;;
64515;SDS011;50891;37.380;-122.076;2022-08-19T13:02:39;4.75;;;3.50;;
64515;SDS011;50891;37.380;-122.076;2022-08-19T13:05:08;4.60;;;3.40;;
64515;SDS011;50891;37.380;-122.076;2022-08-19T13:07:36;4.93;;;3.20;;
64515;SDS011;50891;37.380;-122.076;2022-08-19T13:10:05;4.80;;;3.40;;
64515;SDS011;50891;37.380;-122.076;2022-08-19T13:12:33;5.13;;;3.30;;
64515;SDS011;50891;37.380;-122.076;2022-08-19T13:14:59;4.80;;;3.53;;
64515;SDS011;50891;37.380;-122.076;2022-08-19T13:17:27;4.80;;;3.30;;
64515;SDS011;50891;37.380;-122.076;2022-08-19T13:19:53;4.70;;;3.30;;
64515;SDS011;50891;37.380;-122.076;2022-08-19T13:22:19;5.03;;;3.40;;
64515;SDS011;50891;37.380;-122.076;2022-08-19T13:24:45;4.43;;;3.17;;
64515;SDS011;50891;37.380;-122.076;2022-08-19T13:27:11;4.47;;;3.30;;
64515;SDS011;50891;37.380;-122.076;2022-08-19T13:29:39;4.70;;;3.60;;
64515;SDS011;50891;37.380;-122.076;2022-08-19T13:32:24;4.25;;;3.30;;
64515;SDS011;50891;37.380;-122.076;2022-08-19T13:35:08;4.70;;;3.42;;
64515;SDS011;50891;37.380;-122.076;2022-08-19T13:37:35;5.00;;;3.50;;
64515;SDS011;50891;37.380;-122.076;2022-08-19T13:40:08;5.13;;;3.40;;
64515;SDS011;50891;37.380;-122.076;2022-08-19T13:42:41;5.35;;;3.53;;
64515;SDS011;50891;37.380;-122.076;2022-08-19T13:45:09;4.35;;;3.40;;
64515;SDS011;50891;37.380;-122.076;2022-08-19T13:47:37;5.07;;;3.60;;
64515;SDS011;50891;37.380;-122.076;2022-08-19T13:50:08;4.75;;;3.42;;
64515;SDS011;50891;37.380;-122.076;2022-08-19T13:52:39;4.35;;;3.40;;
64515;SDS011;50891;37.380;-122.076;2022-08-19T13:55:06;4.82;;;3.50;;
64515;SDS011;50891;37.380;-122.076;2022-08-19T13:57:33;4.53;;;3.70;;
64515;SDS011;50891;37.380;-122.076;2022-08-19T14:00:00;4.72;;;3.60;;
64515;SDS011;50891;37.380;-122.076;2022-08-19T14:02:28;5.70;;;4.03;;
64515;SDS011;50891;37.380;-122.076;2022-08-19T14:04:54;5.28;;;3.80;;
64515;SDS011;50891;37.380;-122.076;2022-08-19T14:07:21;5.03;;;3.67;;
64515;SDS011;50891;37.380;-122.076;2022-08-19T14:09:49;5.60;;;3.80;;
64515;SDS011;50891;37.380;-122.076;2022-08-19T14:12:19;4.78;;;3.60;;
64515;SDS011;50891;37.380;-122.076;2022-08-19T14:14:46;5.15;;;3.70;;
64515;SDS011;50891;37.380;-122.076;2022-08-19T14:17:12;6.43;;;3.92;;
64515;SDS011;50891;37.380;-122.076;2022-08-19T14:19:38;5.97;;;3.83;;
64515;SDS011;50891;37.380;-122.076;2022-08-19T14:22:05;5.60;;;3.80;;
64515;SDS011;50891;37.380;-122.076;2022-08-19T14:24:31;5.72;;;3.80;;
64515;SDS011;50891;37.380;-122.076;2022-08-19T14:26:57;5.72;;;3.90;;
64515;SDS011;50891;37.380;-122.076;2022-08-19T14:29:24;5.57;;;4.00;;